createdAt,value
2022-09-16T00:01:13.630Z,10.40
2022-09-16T00:03:42.300Z,10.50
2022-09-16T00:06:20.493Z,10.50
2022-09-16T00:08:49.307Z,10.60
2022-09-16T00:11:17.935Z,10.70
2022-09-16T00:13:46.769Z,10.80
2022-09-16T00:16:19.214Z,10.90
2022-09-16T00:18:47.462Z,11.00
2022-09-16T00:21:16.147Z,11.10
2022-09-16T00:23:45.719Z,11.20
2022-09-16T00:26:14.096Z,11.30
2022-09-16T00:28:42.325Z,11.50
2022-09-16T00:31:10.600Z,11.60
2022-09-16T00:33:38.977Z,11.70
2022-09-16T00:36:09.448Z,11.90
2022-09-16T00:38:38.096Z,12.10
2022-09-16T00:41:08.166Z,12.20
2022-09-16T00:43:52.195Z,12.30
2022-09-16T00:46:23.415Z,12.40
2022-09-16T00:48:52.334Z,12.50
2022-09-16T00:51:22.019Z,12.60
2022-09-16T00:53:57.056Z,12.70
2022-09-16T00:56:28.403Z,12.70
2022-09-16T00:59:04.189Z,12.70
2022-09-16T01:01:33.307Z,12.80
2022-09-16T01:04:04.852Z,12.80
2022-09-16T01:06:35.906Z,12.90
2022-09-16T01:09:05.039Z,12.90
2022-09-16T01:11:34.582Z,13.00
2022-09-16T01:14:18.679Z,13.10
2022-09-16T01:16:51.775Z,13.10
2022-09-16T01:19:39.009Z,13.20
2022-09-16T01:22:21.439Z,13.10
2022-09-16T01:24:59.651Z,13.00
2022-09-16T01:28:08.244Z,12.90
2022-09-16T01:30:48.826Z,12.80
2022-09-16T01:33:25.031Z,12.70
2022-09-16T01:36:10.004Z,12.60
2022-09-16T01:38:57.014Z,12.60
2022-09-16T01:41:33.752Z,12.40
2022-09-16T01:44:07.786Z,12.30
2022-09-16T01:46:43.293Z,12.30
2022-09-16T01:49:18.824Z,12.30
2022-09-16T01:51:52.201Z,12.30
2022-09-16T01:54:26.263Z,12.30
2022-09-16T01:56:59.130Z,12.30
2022-09-16T01:59:35.623Z,12.20
2022-09-16T02:02:10.690Z,12.30
2022-09-16T02:04:44.849Z,12.20
2022-09-16T02:07:16.590Z,12.20
2022-09-16T02:09:49.456Z,12.00
2022-09-16T02:12:23.523Z,11.80
2022-09-16T02:14:54.379Z,11.60
2022-09-16T02:17:27.483Z,11.50
2022-09-16T02:20:00.167Z,11.50
2022-09-16T02:22:34.834Z,11.40
2022-09-16T02:25:06.386Z,11.50
2022-09-16T02:27:38.100Z,11.50
2022-09-16T02:30:10.406Z,11.50
2022-09-16T02:32:43.463Z,11.50
2022-09-16T02:35:17.002Z,11.50
2022-09-16T02:37:49.333Z,11.40
2022-09-16T02:40:20.958Z,11.30
2022-09-16T02:42:49.516Z,11.30
2022-09-16T02:45:18.057Z,11.40
2022-09-16T02:47:55.397Z,11.60
2022-09-16T02:50:30.748Z,11.60
2022-09-16T02:53:02.847Z,11.70
2022-09-16T02:55:39.824Z,11.90
2022-09-16T02:58:08.722Z,12.20
2022-09-16T03:00:42.312Z,12.50
2022-09-16T03:03:12.057Z,12.80
2022-09-16T03:06:05.482Z,12.90
2022-09-16T03:08:34.555Z,13.00
2022-09-16T03:11:09.770Z,13.00
2022-09-16T03:13:44.807Z,13.00
2022-09-16T03:16:18.919Z,13.00
2022-09-16T03:18:58.391Z,13.00
2022-09-16T03:21:32.517Z,13.00
2022-09-16T03:24:11.198Z,13.00
2022-09-16T03:26:47.692Z,13.10
2022-09-16T03:29:22.993Z,13.10
2022-09-16T03:31:57.658Z,13.10
2022-09-16T03:34:31.162Z,13.20
2022-09-16T03:37:04.289Z,13.10
2022-09-16T03:39:33.979Z,12.90
2022-09-16T03:42:03.376Z,12.80
2022-09-16T03:44:36.411Z,12.60
2022-09-16T03:47:04.922Z,12.50
2022-09-16T03:49:34.489Z,12.40
2022-09-16T03:52:04.748Z,12.30
2022-09-16T03:54:33.279Z,12.20
2022-09-16T03:57:01.622Z,12.20
2022-09-16T03:59:29.760Z,12.10
2022-09-16T04:01:58.023Z,12.10
2022-09-16T04:04:26.284Z,12.20
2022-09-16T04:06:55.867Z,12.10
2022-09-16T04:09:24.181Z,12.10
2022-09-16T04:11:52.323Z,12.10
2022-09-16T04:14:20.522Z,12.10
2022-09-16T04:16:48.706Z,12.10
2022-09-16T04:19:16.925Z,12.10
2022-09-16T04:21:45.214Z,12.10
2022-09-16T04:24:14.724Z,12.10
2022-09-16T04:26:43.510Z,12.20
2022-09-16T04:29:11.797Z,12.20
2022-09-16T04:31:40.107Z,12.20
2022-09-16T04:34:08.330Z,12.10
2022-09-16T04:36:36.453Z,12.00
2022-09-16T04:39:06.057Z,11.90
2022-09-16T04:41:35.617Z,11.90
2022-09-16T04:44:04.154Z,11.80
2022-09-16T04:46:33.009Z,11.80
2022-09-16T04:49:01.876Z,11.80
2022-09-16T04:51:32.255Z,11.90
2022-09-16T04:54:01.486Z,11.90
2022-09-16T04:56:31.626Z,11.80
2022-09-16T04:59:03.343Z,11.80
2022-09-16T05:01:33.418Z,11.80
2022-09-16T05:04:04.032Z,11.80
2022-09-16T05:06:33.915Z,11.80
2022-09-16T05:09:02.474Z,11.90
2022-09-16T05:11:33.470Z,11.90
2022-09-16T05:14:04.656Z,11.80
2022-09-16T05:16:33.843Z,11.70
2022-09-16T05:19:04.840Z,11.60
2022-09-16T05:21:35.453Z,11.60
2022-09-16T05:24:05.897Z,11.60
2022-09-16T05:26:35.407Z,11.70
2022-09-16T05:29:10.110Z,11.80
2022-09-16T05:31:39.919Z,11.80
2022-09-16T05:34:12.571Z,11.90
2022-09-16T05:36:43.378Z,11.80
2022-09-16T05:39:28.074Z,11.80
2022-09-16T05:41:58.155Z,11.80
2022-09-16T05:44:29.432Z,11.80
2022-09-16T05:46:57.855Z,11.80
2022-09-16T05:49:26.192Z,11.70
2022-09-16T05:51:55.152Z,11.70
2022-09-16T05:54:25.586Z,11.70
2022-09-16T05:56:54.091Z,11.80
2022-09-16T05:59:23.572Z,11.80
2022-09-16T06:01:53.354Z,11.80
2022-09-16T06:04:21.649Z,11.90
2022-09-16T06:06:49.967Z,11.90
2022-09-16T06:09:21.843Z,12.00
2022-09-16T06:11:51.451Z,12.00
2022-09-16T06:14:22.637Z,11.90
2022-09-16T06:16:52.710Z,11.90
2022-09-16T06:19:20.911Z,11.90
2022-09-16T06:21:49.650Z,11.90
2022-09-16T06:24:20.214Z,11.90
2022-09-16T06:26:49.688Z,11.80
2022-09-16T06:29:18.738Z,11.80
2022-09-16T06:31:47.017Z,11.80
2022-09-16T06:34:18.563Z,11.80
2022-09-16T06:36:46.947Z,11.80
2022-09-16T06:39:17.100Z,11.90
2022-09-16T06:41:46.445Z,11.90
2022-09-16T06:44:14.645Z,11.90
2022-09-16T06:46:44.208Z,12.00
2022-09-16T06:49:14.407Z,12.00
2022-09-16T06:51:43.995Z,11.90
2022-09-16T06:54:12.746Z,11.90
2022-09-16T06:56:41.634Z,11.90
2022-09-16T06:59:10.801Z,11.90
2022-09-16T07:01:39.088Z,11.90
2022-09-16T07:04:10.594Z,11.90
2022-09-16T07:07:07.671Z,11.90
2022-09-16T07:09:28.895Z,12.00
2022-09-16T07:11:57.138Z,12.10
2022-09-16T07:14:25.537Z,12.30
2022-09-16T07:16:54.028Z,12.40
2022-09-16T07:19:22.661Z,12.90
2022-09-16T07:21:50.854Z,13.30
2022-09-16T07:24:19.175Z,13.50
2022-09-16T07:26:48.770Z,13.50
2022-09-16T07:29:19.014Z,13.50
2022-09-16T07:31:48.119Z,13.40
2022-09-16T07:34:16.308Z,13.30
2022-09-16T07:36:46.464Z,13.00
2022-09-16T07:39:16.757Z,12.90
2022-09-16T07:41:46.526Z,12.80
2022-09-16T07:44:18.199Z,12.70
2022-09-16T07:46:46.519Z,12.60
2022-09-16T07:49:17.124Z,12.50
2022-09-16T07:51:45.780Z,12.40
2022-09-16T07:54:15.764Z,12.40
2022-09-16T07:56:45.257Z,12.40
2022-09-16T07:59:18.798Z,12.40
2022-09-16T08:01:48.712Z,12.50
2022-09-16T08:04:18.464Z,12.50
2022-09-16T08:06:46.667Z,12.50
2022-09-16T08:12:06.445Z,12.70
2022-09-16T08:14:36.297Z,12.90
2022-09-16T08:17:04.853Z,13.20
2022-09-16T08:19:33.052Z,13.90
2022-09-16T08:22:01.220Z,14.30
2022-09-16T08:24:29.400Z,14.50
2022-09-16T08:26:57.594Z,14.60
2022-09-16T08:29:26.105Z,14.70
2022-09-16T08:31:55.754Z,14.80
2022-09-16T08:34:24.183Z,15.00
2022-09-16T08:36:52.727Z,15.10
2022-09-16T08:39:21.660Z,15.10
2022-09-16T08:42:24.739Z,15.00
2022-09-16T08:45:02.050Z,15.00
2022-09-16T08:47:42.690Z,14.70
2022-09-16T08:50:17.197Z,14.40
2022-09-16T08:52:46.769Z,14.00
2022-09-16T08:55:20.032Z,13.80
2022-09-16T08:57:57.146Z,13.80
2022-09-16T09:00:25.362Z,13.80
2022-09-16T09:02:58.413Z,13.80
2022-09-16T09:05:35.017Z,13.90
2022-09-16T09:08:15.489Z,14.20
2022-09-16T09:10:49.885Z,14.20
2022-09-16T09:13:48.948Z,13.90
2022-09-16T09:16:26.504Z,13.40
2022-09-16T09:19:04.611Z,13.00
2022-09-16T09:21:41.609Z,12.90
2022-09-16T09:24:34.624Z,12.80
2022-09-16T09:27:10.479Z,12.70
2022-09-16T09:29:57.961Z,12.70
2022-09-16T09:32:46.351Z,12.70
2022-09-16T09:35:28.917Z,12.70
2022-09-16T09:38:32.246Z,13.00
2022-09-16T09:41:07.910Z,13.20
2022-09-16T09:43:41.757Z,13.40
2022-09-16T09:46:14.176Z,13.80
2022-09-16T09:48:46.064Z,14.10
2022-09-16T09:51:23.922Z,14.20
2022-09-16T09:53:58.113Z,14.30
2022-09-16T09:56:31.625Z,14.40
2022-09-16T09:59:20.752Z,14.60
2022-09-16T10:01:54.310Z,14.70
2022-09-16T10:04:22.514Z,14.60
2022-09-16T10:06:55.511Z,14.30
2022-09-16T10:09:24.549Z,14.00
2022-09-16T10:11:55.639Z,13.80
2022-09-16T10:14:26.788Z,13.80
2022-09-16T10:16:56.028Z,13.70
2022-09-16T10:19:26.686Z,13.80
2022-09-16T10:21:58.110Z,13.60
2022-09-16T10:24:30.850Z,13.10
2022-09-16T10:26:59.781Z,12.80
2022-09-16T10:29:28.657Z,12.80
2022-09-16T10:31:59.300Z,12.80
2022-09-16T10:34:32.756Z,12.70
2022-09-16T10:37:06.143Z,12.80
2022-09-16T10:39:35.154Z,13.00
2022-09-16T10:42:04.274Z,13.10
2022-09-16T10:44:34.757Z,13.30
2022-09-16T10:47:06.468Z,13.40
2022-09-16T10:49:41.306Z,13.50
2022-09-16T10:52:17.664Z,13.70
2022-09-16T10:54:46.552Z,14.00
2022-09-16T10:57:28.782Z,14.10
2022-09-16T11:00:09.631Z,14.20
2022-09-16T11:03:12.104Z,14.30
2022-09-16T11:05:51.038Z,14.20
2022-09-16T11:08:38.913Z,14.00
2022-09-16T11:11:14.429Z,13.80
2022-09-16T11:13:52.973Z,13.60
2022-09-16T11:16:33.141Z,13.30
2022-09-16T11:19:08.409Z,13.10
2022-09-16T11:22:01.049Z,13.20
2022-09-16T11:24:52.607Z,14.10
2022-09-16T11:27:32.104Z,15.00
2022-09-16T11:30:10.185Z,15.10
2022-09-16T11:33:05.729Z,15.20
2022-09-16T11:36:03.852Z,15.80
2022-09-16T11:38:43.752Z,16.00
2022-09-16T11:41:24.439Z,15.20
2022-09-16T11:44:23.967Z,14.70
2022-09-16T11:47:01.903Z,14.60
2022-09-16T11:49:47.937Z,14.40
2022-09-16T11:52:30.789Z,14.40
2022-09-16T11:55:18.674Z,14.30
2022-09-16T11:57:53.539Z,14.40
2022-09-16T12:00:22.201Z,14.60
2022-09-16T12:02:58.773Z,14.80
2022-09-16T12:05:31.977Z,14.80
2022-09-16T12:08:07.951Z,14.90
2022-09-16T12:10:42.481Z,15.00
2022-09-16T12:13:17.063Z,15.40
2022-09-16T12:15:49.828Z,15.80
2022-09-16T12:18:20.953Z,15.60
2022-09-16T12:20:54.287Z,15.30
2022-09-16T12:23:25.895Z,15.10
2022-09-16T12:26:05.679Z,14.90
2022-09-16T12:28:38.866Z,14.70
2022-09-16T12:31:14.716Z,14.60
2022-09-16T12:33:48.607Z,14.50
2022-09-16T12:36:21.747Z,14.50
2022-09-16T12:38:52.026Z,14.50
2022-09-16T12:42:02.983Z,14.30
2022-09-16T12:45:09.412Z,13.80
2022-09-16T12:48:01.704Z,13.40
2022-09-16T12:50:55.580Z,13.70
2022-09-16T12:53:50.384Z,14.50
2022-09-16T12:56:35.917Z,15.20
2022-09-16T12:59:43.595Z,14.90
2022-09-16T13:02:18.276Z,14.50
2022-09-16T13:04:49.190Z,14.20
2022-09-16T13:07:24.104Z,13.80
2022-09-16T13:10:02.752Z,13.10
2022-09-16T13:12:41.031Z,12.50
2022-09-16T13:15:25.743Z,12.60
2022-09-16T13:17:55.694Z,12.90
2022-09-16T13:20:30.228Z,13.40
2022-09-16T13:23:06.913Z,13.60
2022-09-16T13:25:50.012Z,13.90
2022-09-16T13:28:28.377Z,14.00
2022-09-16T13:30:56.687Z,14.00
2022-09-16T13:33:29.721Z,13.70
2022-09-16T13:36:29.754Z,13.30
2022-09-16T13:38:59.618Z,13.00
2022-09-16T13:41:34.612Z,12.70
2022-09-16T13:44:04.215Z,12.60
2022-09-16T13:46:35.224Z,12.50
2022-09-16T13:49:24.538Z,12.40
2022-09-16T13:51:53.937Z,12.50
2022-09-16T13:54:29.046Z,12.60
2022-09-16T13:57:20.904Z,12.90
2022-09-16T14:00:09.439Z,13.50
2022-09-16T14:02:49.974Z,14.40
2022-09-16T14:05:44.866Z,15.60
2022-09-16T14:08:19.844Z,16.70
2022-09-16T14:10:57.121Z,17.50
2022-09-16T14:13:26.125Z,17.30
2022-09-16T14:15:57.896Z,16.40
2022-09-16T14:18:30.305Z,15.20
2022-09-16T14:21:03.386Z,14.10
2022-09-16T14:23:33.164Z,13.20
2022-09-16T14:26:11.602Z,12.80
2022-09-16T14:28:39.987Z,12.90
2022-09-16T14:31:11.744Z,13.50
2022-09-16T14:33:43.751Z,13.40
2022-09-16T14:36:19.268Z,13.10
2022-09-16T14:38:51.120Z,12.90
2022-09-16T14:41:26.111Z,12.70
2022-09-16T14:43:57.811Z,12.70
2022-09-16T14:46:26.741Z,12.50
2022-09-16T14:48:55.186Z,12.40
2022-09-16T14:51:27.779Z,12.30
2022-09-16T14:54:15.717Z,11.90
2022-09-16T14:56:43.975Z,11.70
2022-09-16T14:59:15.013Z,11.60
2022-09-16T15:01:43.743Z,11.50
2022-09-16T15:04:19.559Z,11.30
2022-09-16T15:06:55.510Z,11.30
2022-09-16T15:09:29.451Z,11.30
2022-09-16T15:12:00.804Z,11.30
2022-09-16T15:14:29.534Z,11.50
2022-09-16T15:17:02.495Z,11.50
2022-09-16T15:19:36.331Z,11.60
2022-09-16T15:22:09.470Z,11.70
2022-09-16T15:24:42.429Z,11.70
2022-09-16T15:27:11.299Z,11.90
2022-09-16T15:29:51.662Z,12.00
2022-09-16T15:32:22.574Z,12.10
2022-09-16T15:35:17.219Z,12.30
2022-09-16T15:37:46.814Z,12.60
2022-09-16T15:40:33.746Z,13.00
2022-09-16T15:43:05.767Z,13.40
2022-09-16T15:45:34.379Z,13.80
2022-09-16T15:48:06.655Z,14.10
2022-09-16T15:50:41.992Z,14.20
2022-09-16T15:53:14.879Z,14.20
2022-09-16T15:55:45.391Z,14.20
2022-09-16T15:58:18.746Z,14.00
2022-09-16T16:01:02.822Z,13.80
2022-09-16T16:03:36.187Z,13.70
2022-09-16T16:06:05.273Z,13.50
2022-09-16T16:08:45.695Z,13.40
2022-09-16T16:11:15.993Z,13.20
2022-09-16T16:13:44.913Z,13.00
2022-09-16T16:16:15.526Z,13.00
2022-09-16T16:18:46.054Z,12.90
2022-09-16T16:21:15.971Z,12.90
2022-09-16T16:23:45.814Z,12.90
2022-09-16T16:26:14.050Z,12.90
2022-09-16T16:28:42.244Z,12.90
2022-09-16T16:31:12.387Z,12.90
2022-09-16T16:33:46.301Z,12.80
2022-09-16T16:36:15.995Z,12.70
2022-09-16T16:38:46.469Z,12.70
2022-09-16T16:41:20.189Z,12.60
2022-09-16T16:43:48.530Z,12.60
2022-09-16T16:46:17.689Z,12.50
2022-09-16T16:48:46.074Z,12.50
2022-09-16T16:51:14.653Z,12.40
2022-09-16T16:53:42.882Z,12.40
2022-09-16T16:56:15.469Z,12.40
2022-09-16T16:58:44.135Z,12.30
2022-09-16T17:01:14.033Z,12.30
2022-09-16T17:03:43.082Z,12.30
2022-09-16T17:06:11.333Z,12.20
2022-09-16T17:08:39.788Z,12.20
2022-09-16T17:11:11.062Z,12.10
2022-09-16T17:13:42.908Z,12.10
2022-09-16T17:16:13.241Z,12.10
2022-09-16T17:18:42.822Z,12.10
2022-09-16T17:21:12.893Z,12.00
2022-09-16T17:23:41.431Z,11.90
2022-09-16T17:26:10.974Z,11.70
2022-09-16T17:28:41.892Z,11.50
2022-09-16T17:31:11.514Z,11.20
2022-09-16T17:33:39.803Z,11.10
2022-09-16T17:36:10.032Z,10.90
2022-09-16T17:38:38.259Z,10.80
2022-09-16T17:41:08.480Z,10.70
2022-09-16T17:43:37.795Z,10.70
2022-09-16T17:46:09.914Z,10.60
2022-09-16T17:48:38.895Z,10.60
2022-09-16T17:51:07.424Z,10.70
2022-09-16T17:53:36.290Z,10.70
2022-09-16T17:56:06.443Z,10.60
2022-09-16T17:58:35.917Z,10.60
2022-09-16T18:01:11.140Z,10.60
2022-09-16T18:03:40.788Z,10.60
2022-09-16T18:06:12.030Z,10.60
2022-09-16T18:08:40.634Z,10.60
2022-09-16T18:11:10.410Z,10.60
2022-09-16T18:13:39.197Z,10.60
2022-09-16T18:16:10.951Z,10.70
2022-09-16T18:18:41.657Z,10.80
2022-09-16T18:21:11.942Z,10.80
2022-09-16T18:23:40.079Z,10.70
2022-09-16T18:26:10.039Z,10.70
2022-09-16T18:29:05.326Z,10.60
2022-09-16T18:31:28.632Z,10.50
2022-09-16T18:33:57.902Z,10.50
2022-09-16T18:36:30.168Z,10.60
2022-09-16T18:38:59.515Z,10.50
2022-09-16T18:41:29.528Z,10.50
2022-09-16T18:44:00.233Z,10.40
2022-09-16T18:46:31.198Z,10.30
2022-09-16T18:48:59.839Z,10.30
2022-09-16T18:51:30.222Z,10.20
2022-09-16T18:54:00.781Z,10.10
2022-09-16T18:56:31.903Z,10.10
2022-09-16T19:01:53.435Z,10.20
2022-09-16T19:04:23.384Z,10.20
2022-09-16T19:06:53.683Z,10.20
2022-09-16T19:09:24.165Z,10.30
2022-09-16T19:11:54.032Z,10.30
2022-09-16T19:14:24.891Z,10.40
2022-09-16T19:16:55.546Z,10.50
2022-09-16T19:19:23.841Z,10.40
2022-09-16T19:21:52.099Z,10.40
2022-09-16T19:24:22.845Z,10.40
2022-09-16T19:26:52.770Z,10.40
2022-09-16T19:29:21.836Z,10.40
2022-09-16T19:31:52.806Z,10.40
2022-09-16T19:34:22.775Z,10.50
2022-09-16T19:36:51.640Z,10.50
2022-09-16T19:39:21.271Z,10.60
2022-09-16T19:41:49.661Z,10.70
2022-09-16T19:44:18.998Z,10.80
2022-09-16T19:46:49.471Z,10.90
2022-09-16T19:49:20.503Z,10.90
2022-09-16T19:51:52.552Z,11.00
2022-09-16T19:54:21.478Z,11.00
2022-09-16T19:56:50.872Z,11.10
2022-09-16T19:59:20.251Z,11.10
2022-09-16T20:01:48.794Z,11.20
2022-09-16T20:04:19.991Z,11.20
2022-09-16T20:06:50.212Z,11.20
2022-09-16T20:09:19.809Z,11.00
2022-09-16T20:11:49.515Z,10.90
2022-09-16T20:14:20.325Z,10.80
2022-09-16T20:16:49.583Z,10.80
2022-09-16T20:19:19.921Z,10.90
2022-09-16T20:21:49.865Z,10.90
2022-09-16T20:24:19.853Z,10.90
2022-09-16T20:26:48.833Z,10.90
2022-09-16T20:29:18.340Z,10.90
2022-09-16T20:31:47.632Z,10.80
2022-09-16T20:34:16.577Z,10.80
2022-09-16T20:36:46.229Z,10.70
2022-09-16T20:39:16.246Z,10.70
2022-09-16T20:41:45.692Z,10.50
2022-09-16T20:44:15.672Z,10.40
2022-09-16T20:46:44.662Z,10.30
2022-09-16T20:49:16.503Z,10.30
2022-09-16T20:51:45.667Z,10.40
2022-09-16T20:54:16.487Z,10.50
2022-09-16T20:56:46.819Z,10.40
2022-09-16T20:59:17.137Z,10.40
2022-09-16T21:01:46.128Z,10.50
2022-09-16T21:04:15.900Z,10.50
2022-09-16T21:06:44.523Z,10.70
2022-09-16T21:09:15.039Z,10.70
2022-09-16T21:11:45.630Z,10.70
2022-09-16T21:14:16.220Z,10.80
2022-09-16T21:16:45.725Z,10.90
2022-09-16T21:19:14.480Z,10.90
2022-09-16T21:21:45.685Z,10.90
2022-09-16T21:24:14.391Z,11.00
2022-09-16T21:26:44.929Z,11.00
2022-09-16T21:29:15.337Z,11.00
2022-09-16T21:31:44.566Z,10.90
2022-09-16T21:34:15.063Z,10.90
2022-09-16T21:36:44.601Z,10.80
2022-09-16T21:39:14.277Z,10.90
2022-09-16T21:41:44.787Z,10.90
2022-09-16T21:44:13.924Z,10.90
2022-09-16T21:46:45.447Z,10.90
2022-09-16T21:49:18.225Z,11.00
2022-09-16T21:51:46.673Z,10.90
2022-09-16T21:54:19.717Z,10.90
2022-09-16T21:56:50.745Z,11.00
2022-09-16T21:59:20.386Z,11.10
2022-09-16T22:01:49.546Z,11.20
2022-09-16T22:04:20.814Z,11.20
2022-09-16T22:06:49.951Z,11.20
2022-09-16T22:09:18.899Z,11.20
2022-09-16T22:11:47.270Z,11.20
2022-09-16T22:14:17.126Z,11.20
2022-09-16T22:16:45.630Z,11.20
2022-09-16T22:19:15.819Z,11.20
2022-09-16T22:21:47.736Z,11.20
2022-09-16T22:24:21.784Z,11.30
2022-09-16T22:26:51.081Z,11.40
2022-09-16T22:29:20.869Z,11.50
2022-09-16T22:31:49.380Z,11.50
2022-09-16T22:34:17.694Z,11.40
2022-09-16T22:36:45.943Z,11.30
2022-09-16T22:39:15.851Z,11.20
2022-09-16T22:41:44.289Z,11.20
2022-09-16T22:44:12.859Z,11.20
2022-09-16T22:46:44.341Z,11.20
2022-09-16T22:49:13.373Z,11.20
2022-09-16T22:51:42.143Z,11.20
2022-09-16T22:54:12.106Z,11.20
2022-09-16T22:56:40.384Z,11.30
2022-09-16T22:59:09.342Z,11.30
2022-09-16T23:01:40.996Z,11.30
2022-09-16T23:04:11.489Z,11.40
2022-09-16T23:06:41.384Z,11.40
2022-09-16T23:09:11.795Z,11.40
2022-09-16T23:11:40.339Z,11.40
2022-09-16T23:14:10.853Z,11.30
2022-09-16T23:16:39.495Z,11.20
2022-09-16T23:19:11.812Z,11.20
2022-09-16T23:21:40.372Z,11.30
2022-09-16T23:24:10.482Z,11.30
2022-09-16T23:26:39.720Z,11.20
2022-09-16T23:29:10.076Z,11.20
2022-09-16T23:31:40.578Z,11.10
2022-09-16T23:34:12.706Z,11.00
2022-09-16T23:36:41.626Z,11.00
2022-09-16T23:39:11.649Z,11.00
2022-09-16T23:41:39.841Z,11.00
2022-09-16T23:44:07.946Z,11.00
2022-09-16T23:46:36.278Z,11.00
2022-09-16T23:49:04.577Z,11.00
2022-09-16T23:51:34.150Z,11.00
2022-09-16T23:54:02.362Z,11.00
2022-09-16T23:56:30.538Z,11.10
2022-09-16T23:59:01.894Z,11.10
